首页
METAR-TAF:

METAR-TAF

机场 :

西沃萨古尔·拉姆古兰爵士国际机场

毛里求斯, 毛里求斯

纬度: 20-26S, 经度: 057-40E, 海拔: 55米

当前天气观测

该预报发布于33分钟前的14:00 UTC
风速4节,风向南转西南
温度 23°C
湿度 78%
气压 1018 hPa
能见度10公里或以上
散云层高于1600英尺
多云层高于5000英尺

METAR: FIMP 171400Z 21004KT 9999 SCT016 BKN050 23/19 Q1018

时间: 18:33 (14:33 UTC)

预报

该预报发布于3小时和13分钟前的11:20 UTC
预报有效从17日的 12点(UTC)到 18日的 18点(UTC)
风速10节,风向南转西南
能见度10公里或以上
少量云层高于1600英尺
短暂存在
从 17日的 20点(UTC)到 18日的 03点(UTC)
能見度: 7000
多云层高于1500英尺
小阵雨
成为
从 18日的 04点(UTC)到 18日的 06点(UTC)
风速10节,风向南转南东

TAF: FIMP 171120Z 1712/1818 21010KT 9999 FEW016 TEMPO 1720/1803 7000 -SHRA BKN015 BECMG 1804/1806 16010KT

超过4000个机场的气象观测和天气预报(METAR&TAF报告)。

可查询的气象台以黄色和红色小点在地图上表示。

将鼠标移到小点上方,可查看气象台名称。

然后点击查看天气观测和预报。

如需切换地图:点击带黑十字的绿色按钮放大地图;点击带横线的绿色按钮缩小地图;或者点击绿色箭头查看邻近地区的地图。


METAR-TAF: